Time;durP1;ratioP1;P1;durP2;ratioP2;P2;SDS_P1;SDS_P2;PMS_P1;PMS_P2;Temp;Humidity;BMP_temperature;BMP_pressure;BME280_temperature;BME280_humidity;BME280_pressure;Samples;Min_cycle;Max_cycle;Signal;HPM_P1;HPM_P2
2024/01/02 00:00:06;;;;;;;8.05;2.67;;;;;;;;;;5029119;28;20038;-67
2024/01/02 00:02:32;;;;;;;11.73;2.58;;;;;;;;;;5012321;28;20114;-67
2024/01/02 00:04:58;;;;;;;10.55;2.70;;;;;;;;;;4988402;28;20042;-67
2024/01/02 00:07:24;;;;;;;10.15;2.60;;;;;;;;;;5006463;28;20038;-67
2024/01/02 00:09:50;;;;;;;15.00;2.53;;;;;;;;;;5010031;28;20052;-67
2024/01/02 00:12:16;;;;;;;7.45;2.10;;;;;;;;;;5012499;28;20556;-67
2024/01/02 00:14:42;;;;;;;7.10;1.90;;;;;;;;;;4989226;28;20129;-67
2024/01/02 00:17:08;;;;;;;5.80;2.42;;;;;;;;;;4999336;28;20034;-67
2024/01/02 00:19:34;;;;;;;8.02;2.10;;;;;;;;;;4992942;28;20041;-66
2024/01/02 00:22:00;;;;;;;6.13;1.77;;;;;;;;;;5006504;28;20046;-67
2024/01/02 00:24:26;;;;;;;8.57;1.90;;;;;;;;;;5006048;28;20029;-66
2024/01/02 00:26:52;;;;;;;10.27;2.13;;;;;;;;;;4991645;28;20050;-66
2024/01/02 00:29:17;;;;;;;5.78;1.67;;;;;;;;;;4994976;28;20049;-66
2024/01/02 00:31:44;;;;;;;8.68;1.85;;;;;;;;;;4992997;28;20049;-67
2024/01/02 00:34:11;;;;;;;5.30;2.00;;;;;;;;;;4991689;28;20125;-66
2024/01/02 00:36:37;;;;;;;7.93;2.47;;;;;;;;;;4997175;28;20042;-67
2024/01/02 00:39:03;;;;;;;6.85;2.13;;;;;;;;;;5011026;28;20054;-67
2024/01/02 00:41:29;;;;;;;7.15;2.00;;;;;;;;;;4991149;28;20054;-67
2024/01/02 00:43:55;;;;;;;7.25;1.98;;;;;;;;;;4994793;28;20450;-67
2024/01/02 00:46:21;;;;;;;8.35;2.00;;;;;;;;;;4988809;28;20066;-67
2024/01/02 00:48:47;;;;;;;8.52;1.60;;;;;;;;;;4994393;28;20402;-67
2024/01/02 00:51:13;;;;;;;10.85;2.20;;;;;;;;;;5011156;28;20038;-67
2024/01/02 00:53:39;;;;;;;9.23;2.00;;;;;;;;;;5012577;28;20129;-67
2024/01/02 00:56:05;;;;;;;9.07;2.15;;;;;;;;;;4975937;28;20060;-67
2024/01/02 00:58:31;;;;;;;11.57;2.25;;;;;;;;;;4994889;28;20056;-67
2024/01/02 01:00:57;;;;;;;8.40;2.05;;;;;;;;;;4992840;28;20038;-67
2024/01/02 01:03:23;;;;;;;10.32;2.17;;;;;;;;;;4994034;28;20045;-67
2024/01/02 01:05:49;;;;;;;12.63;2.50;;;;;;;;;;5005879;28;20052;-67
2024/01/02 01:08:15;;;;;;;10.65;2.10;;;;;;;;;;4994172;28;20455;-67
2024/01/02 01:10:41;;;;;;;12.20;2.65;;;;;;;;;;4993705;28;20084;-67
2024/01/02 01:13:07;;;;;;;9.13;2.72;;;;;;;;;;5010565;28;20701;-67
2024/01/02 01:15:33;;;;;;;10.60;2.72;;;;;;;;;;5011861;28;20099;-67
2024/01/02 01:17:59;;;;;;;16.00;3.25;;;;;;;;;;5011105;28;20046;-67
2024/01/02 01:20:25;;;;;;;11.57;3.00;;;;;;;;;;4978017;28;20037;-68
2024/01/02 01:22:51;;;;;;;14.93;2.53;;;;;;;;;;4992521;28;20038;-67
2024/01/02 01:25:17;;;;;;;13.95;2.70;;;;;;;;;;5011566;28;20382;-67
2024/01/02 01:27:43;;;;;;;12.50;2.92;;;;;;;;;;4993905;28;20049;-67
2024/01/02 01:30:09;;;;;;;12.25;3.00;;;;;;;;;;4992919;28;20034;-67
2024/01/02 01:32:35;;;;;;;13.73;2.92;;;;;;;;;;4993147;28;20034;-67
2024/01/02 01:35:02;;;;;;;17.00;3.58;;;;;;;;;;5010018;28;20172;-67
2024/01/02 01:37:28;;;;;;;14.98;3.63;;;;;;;;;;4993254;28;20042;-67
2024/01/02 01:39:56;;;;;;;13.15;3.22;;;;;;;;;;4993947;28;20057;-67
2024/01/02 01:42:22;;;;;;;13.45;3.28;;;;;;;;;;4993696;28;20410;-68
2024/01/02 01:44:48;;;;;;;13.32;3.95;;;;;;;;;;4993332;28;20124;-67
2024/01/02 01:47:14;;;;;;;13.10;3.20;;;;;;;;;;5010041;28;20058;-67
2024/01/02 01:49:41;;;;;;;9.43;3.35;;;;;;;;;;5011415;28;20061;-67
2024/01/02 01:52:07;;;;;;;15.15;3.90;;;;;;;;;;4991553;28;20038;-67
2024/01/02 01:54:33;;;;;;;13.27;3.88;;;;;;;;;;5004954;28;20050;-67
2024/01/02 01:56:59;;;;;;;13.27;4.05;;;;;;;;;;4991676;28;20042;-67
2024/01/02 01:59:26;;;;;;;15.02;3.95;;;;;;;;;;5011571;28;20580;-67
2024/01/02 02:01:52;;;;;;;13.35;3.95;;;;;;;;;;4992012;28;20049;-67
2024/01/02 02:04:18;;;;;;;11.85;4.20;;;;;;;;;;4987967;28;20034;-67
2024/01/02 02:06:44;;;;;;;11.38;4.28;;;;;;;;;;5007148;28;20049;-67
2024/01/02 02:09:10;;;;;;;15.23;4.03;;;;;;;;;;5013840;28;20092;-67
2024/01/02 02:11:37;;;;;;;18.23;4.53;;;;;;;;;;5014847;28;20037;-67
2024/01/02 02:14:03;;;;;;;13.40;4.55;;;;;;;;;;5014878;28;20050;-67
2024/01/02 02:16:29;;;;;;;14.23;4.85;;;;;;;;;;4997456;28;20077;-67
2024/01/02 02:18:58;;;;;;;13.52;4.55;;;;;;;;;;4992039;28;20065;-67
2024/01/02 02:21:27;;;;;;;15.35;4.45;;;;;;;;;;4987751;28;20038;-67
2024/01/02 02:23:53;;;;;;;12.55;4.85;;;;;;;;;;4990661;28;20505;-67
2024/01/02 02:26:19;;;;;;;9.30;4.88;;;;;;;;;;5002738;28;20046;-67
2024/01/02 02:28:45;;;;;;;18.13;5.10;;;;;;;;;;4980959;28;20498;-67
2024/01/02 02:31:11;;;;;;;20.38;4.88;;;;;;;;;;4996358;28;20045;-67
2024/01/02 02:33:37;;;;;;;15.77;5.10;;;;;;;;;;5014728;28;20046;-67
2024/01/02 02:36:03;;;;;;;14.93;5.07;;;;;;;;;;5013938;28;20070;-67
2024/01/02 02:38:29;;;;;;;10.70;4.75;;;;;;;;;;4996412;28;20405;-67
2024/01/02 02:40:55;;;;;;;15.75;5.40;;;;;;;;;;4995877;28;20063;-67
2024/01/02 02:43:21;;;;;;;11.50;4.75;;;;;;;;;;4995652;28;20449;-67
2024/01/02 02:45:47;;;;;;;16.95;4.85;;;;;;;;;;4996996;28;20074;-67
2024/01/02 02:48:13;;;;;;;18.00;5.05;;;;;;;;;;4996493;28;20042;-67
2024/01/02 02:50:39;;;;;;;17.52;5.03;;;;;;;;;;4995211;28;20045;-67
2024/01/02 02:53:05;;;;;;;8.98;4.65;;;;;;;;;;4995487;28;20060;-67
2024/01/02 02:55:31;;;;;;;10.73;4.57;;;;;;;;;;4996568;28;20049;-67
2024/01/02 02:57:57;;;;;;;12.65;4.88;;;;;;;;;;4996466;28;20498;-67
2024/01/02 03:00:23;;;;;;;14.57;4.50;;;;;;;;;;4995180;28;20065;-68
2024/01/02 03:02:49;;;;;;;12.40;4.78;;;;;;;;;;5017557;28;20048;-67
2024/01/02 03:05:16;;;;;;;11.20;4.18;;;;;;;;;;5012577;28;20065;-68
2024/01/02 03:07:42;;;;;;;11.95;4.63;;;;;;;;;;5000684;28;20041;-66
2024/01/02 03:10:10;;;;;;;14.75;4.72;;;;;;;;;;5012791;28;20038;-66
2024/01/02 03:12:36;;;;;;;13.95;4.30;;;;;;;;;;4996195;28;20045;-65
2024/01/02 03:15:03;;;;;;;14.48;3.70;;;;;;;;;;5013538;28;20493;-66
2024/01/02 03:17:29;;;;;;;13.30;4.10;;;;;;;;;;5003681;28;20038;-66
2024/01/02 03:19:54;;;;;;;10.68;3.83;;;;;;;;;;4995015;28;20058;-66
2024/01/02 03:22:20;;;;;;;12.52;4.10;;;;;;;;;;4996335;28;20438;-66
2024/01/02 03:24:46;;;;;;;10.70;4.07;;;;;;;;;;4995246;28;20124;-65
2024/01/02 03:27:12;;;;;;;8.20;4.28;;;;;;;;;;5000924;28;20045;-66
2024/01/02 03:29:38;;;;;;;11.23;4.05;;;;;;;;;;5012682;28;20077;-67
2024/01/02 03:32:05;;;;;;;9.88;3.80;;;;;;;;;;4993707;28;20073;-66
2024/01/02 03:34:31;;;;;;;13.10;3.72;;;;;;;;;;4986492;28;20483;-66
2024/01/02 03:36:57;;;;;;;9.90;3.50;;;;;;;;;;4995143;28;20072;-66
2024/01/02 03:39:22;;;;;;;10.15;4.00;;;;;;;;;;5013326;28;20074;-67
2024/01/02 03:41:49;;;;;;;12.77;3.85;;;;;;;;;;5012173;28;20046;-66
2024/01/02 03:44:15;;;;;;;7.68;3.40;;;;;;;;;;5009271;28;20072;-67
2024/01/02 03:46:41;;;;;;;7.90;3.60;;;;;;;;;;5003464;28;20077;-67
2024/01/02 03:49:07;;;;;;;7.22;3.13;;;;;;;;;;4994432;28;20434;-66
2024/01/02 03:51:34;;;;;;;11.27;3.20;;;;;;;;;;5012729;28;20056;-66
2024/01/02 03:54:00;;;;;;;7.28;3.22;;;;;;;;;;5012862;28;20034;-67
2024/01/02 03:56:26;;;;;;;7.85;3.50;;;;;;;;;;4995339;28;20042;-67
2024/01/02 03:58:52;;;;;;;10.18;3.40;;;;;;;;;;4994806;28;20489;-66
2024/01/02 04:01:18;;;;;;;8.82;2.70;;;;;;;;;;4979197;28;20049;-67
2024/01/02 04:03:44;;;;;;;8.73;2.72;;;;;;;;;;4995180;28;20076;-67
2024/01/02 04:06:10;;;;;;;7.60;2.78;;;;;;;;;;4989222;28;20053;-67
2024/01/02 04:08:39;;;;;;;9.63;3.17;;;;;;;;;;5012788;28;20053;-67
2024/01/02 04:11:05;;;;;;;4.50;2.33;;;;;;;;;;4994211;28;20050;-66
2024/01/02 04:13:31;;;;;;;7.90;2.80;;;;;;;;;;4995385;28;20176;-67
2024/01/02 04:15:58;;;;;;;6.97;2.50;;;;;;;;;;4994291;28;20164;-66
2024/01/02 04:18:24;;;;;;;6.30;2.35;;;;;;;;;;5011844;28;20054;-66
2024/01/02 04:20:50;;;;;;;6.80;2.20;;;;;;;;;;5003542;28;20091;-66
2024/01/02 04:23:16;;;;;;;4.60;1.90;;;;;;;;;;4995371;28;20038;-66
2024/01/02 04:25:42;;;;;;;9.88;2.33;;;;;;;;;;5012790;28;20129;-66
2024/01/02 04:28:08;;;;;;;7.53;2.08;;;;;;;;;;4995336;28;20044;-66
2024/01/02 04:30:34;;;;;;;4.68;1.98;;;;;;;;;;4992714;28;20046;-66
2024/01/02 04:33:00;;;;;;;4.32;1.92;;;;;;;;;;4992800;28;20077;-66
2024/01/02 04:35:26;;;;;;;6.90;2.17;;;;;;;;;;4994426;28;20490;-66
2024/01/02 04:37:52;;;;;;;7.13;1.70;;;;;;;;;;4994799;28;20057;-66
2024/01/02 04:40:18;;;;;;;6.68;2.13;;;;;;;;;;5011783;28;20037;-66
2024/01/02 04:42:44;;;;;;;4.20;2.05;;;;;;;;;;5011958;28;20088;-66
2024/01/02 04:45:10;;;;;;;4.78;2.03;;;;;;;;;;5010954;28;20041;-66
2024/01/02 04:47:36;;;;;;;4.28;1.90;;;;;;;;;;4994963;28;20052;-66
2024/01/02 04:50:04;;;;;;;2.95;1.58;;;;;;;;;;4993039;28;20057;-66
2024/01/02 04:52:30;;;;;;;3.25;1.67;;;;;;;;;;5012357;28;20042;-67
2024/01/02 04:54:56;;;;;;;6.68;1.77;;;;;;;;;;4993734;28;20564;-66
2024/01/02 04:57:22;;;;;;;7.20;2.00;;;;;;;;;;5011782;28;20696;-66
2024/01/02 04:59:48;;;;;;;6.03;1.70;;;;;;;;;;4985344;28;20125;-66
2024/01/02 05:02:14;;;;;;;3.25;1.70;;;;;;;;;;5004775;28;20525;-66
2024/01/02 05:04:41;;;;;;;2.88;1.45;;;;;;;;;;5008076;28;20042;-67
2024/01/02 05:07:07;;;;;;;3.38;1.95;;;;;;;;;;5009852;28;20561;-67
2024/01/02 05:09:33;;;;;;;3.40;1.80;;;;;;;;;;5011017;28;20037;-67
2024/01/02 05:11:59;;;;;;;4.22;1.80;;;;;;;;;;5010878;28;20040;-67
2024/01/02 05:14:25;;;;;;;5.45;2.33;;;;;;;;;;5011401;28;20121;-66
2024/01/02 05:16:51;;;;;;;4.22;1.80;;;;;;;;;;4994062;28;20042;-67
2024/01/02 05:19:18;;;;;;;4.68;1.88;;;;;;;;;;4993490;28;20042;-67
2024/01/02 05:21:44;;;;;;;6.35;2.10;;;;;;;;;;5009149;28;20057;-66
2024/01/02 05:24:10;;;;;;;3.03;1.70;;;;;;;;;;5008698;28;20038;-66
2024/01/02 05:26:36;;;;;;;2.78;1.98;;;;;;;;;;4993792;28;20048;-66
2024/01/02 05:29:02;;;;;;;3.90;2.13;;;;;;;;;;5010282;28;20092;-66
2024/01/02 05:31:28;;;;;;;3.05;1.80;;;;;;;;;;5010565;28;20447;-66
2024/01/02 05:33:54;;;;;;;4.32;1.77;;;;;;;;;;4993015;28;20116;-67
2024/01/02 05:36:19;;;;;;;6.32;1.95;;;;;;;;;;4993740;28;20073;-67
2024/01/02 05:38:45;;;;;;;4.18;1.77;;;;;;;;;;4993551;28;20104;-68
2024/01/02 05:41:11;;;;;;;2.20;1.52;;;;;;;;;;5040181;22;20045;-69
2024/01/02 05:43:37;;;;;;;4.25;1.90;;;;;;;;;;5030538;28;20116;-69
2024/01/02 05:46:04;;;;;;;1.77;1.58;;;;;;;;;;5024979;28;20439;-70
2024/01/02 05:48:30;;;;;;;3.47;1.80;;;;;;;;;;5021361;28;20061;-71
2024/01/02 05:50:57;;;;;;;3.22;1.80;;;;;;;;;;4999008;28;20052;-70
2024/01/02 05:53:23;;;;;;;4.25;1.90;;;;;;;;;;4998975;28;20056;-70
2024/01/02 05:55:49;;;;;;;1.10;1.00;;;;;;;;;;4995173;28;20042;-70
2024/01/02 05:58:15;;;;;;;2.85;1.50;;;;;;;;;;4993531;28;20144;-71
2024/01/02 06:00:41;;;;;;;2.25;1.52;;;;;;;;;;5000313;28;20034;-71
2024/01/02 06:03:07;;;;;;;3.83;1.30;;;;;;;;;;4981041;28;20049;-71
2024/01/02 06:05:33;;;;;;;2.30;1.33;;;;;;;;;;4997895;28;20041;-71
2024/01/02 06:07:59;;;;;;;2.28;1.20;;;;;;;;;;5005678;28;20034;-71
2024/01/02 06:10:25;;;;;;;1.08;0.98;;;;;;;;;;5000919;28;20058;-71
2024/01/02 06:12:51;;;;;;;3.65;1.48;;;;;;;;;;5000323;28;20108;-71
2024/01/02 06:15:17;;;;;;;1.80;1.30;;;;;;;;;;4998264;28;20045;-71
2024/01/02 06:17:43;;;;;;;1.50;1.30;;;;;;;;;;5002997;28;20123;-70
2024/01/02 06:20:10;;;;;;;1.65;1.15;;;;;;;;;;4999598;28;20037;-70
2024/01/02 06:22:37;;;;;;;1.45;1.15;;;;;;;;;;4998980;28;20495;-71
2024/01/02 06:25:04;;;;;;;2.47;1.40;;;;;;;;;;4999555;28;20045;-70
2024/01/02 06:27:30;;;;;;;3.03;1.38;;;;;;;;;;5000939;28;20053;-71
2024/01/02 06:29:56;;;;;;;3.38;1.42;;;;;;;;;;4996666;28;20458;-71
2024/01/02 06:32:23;;;;;;;1.60;1.33;;;;;;;;;;5000142;28;20034;-71
2024/01/02 06:34:49;;;;;;;1.20;1.10;;;;;;;;;;5004702;28;20057;-71
2024/01/02 06:37:15;;;;;;;1.23;1.13;;;;;;;;;;5005620;28;20041;-71
2024/01/02 06:39:41;;;;;;;1.27;0.80;;;;;;;;;;5000478;28;20038;-71
2024/01/02 06:42:07;;;;;;;0.80;0.80;;;;;;;;;;5001073;28;20038;-71
2024/01/02 06:44:33;;;;;;;1.13;1.00;;;;;;;;;;5006285;28;20067;-71
2024/01/02 06:46:59;;;;;;;0.90;0.77;;;;;;;;;;5010971;28;20129;-71
2024/01/02 06:49:25;;;;;;;1.60;1.17;;;;;;;;;;4990359;28;20046;-71
2024/01/02 06:51:51;;;;;;;1.05;1.00;;;;;;;;;;4992169;28;20048;-71
2024/01/02 06:54:17;;;;;;;1.55;1.30;;;;;;;;;;5012051;28;20411;-71
2024/01/02 06:56:43;;;;;;;1.40;1.30;;;;;;;;;;4988976;28;20104;-71
2024/01/02 06:59:09;;;;;;;3.28;1.50;;;;;;;;;;5012759;28;20041;-71
2024/01/02 07:01:36;;;;;;;2.05;1.40;;;;;;;;;;5013241;28;20042;-71
2024/01/02 07:04:02;;;;;;;2.17;1.40;;;;;;;;;;5002274;28;20045;-71
2024/01/02 07:06:28;;;;;;;2.55;1.63;;;;;;;;;;5007840;28;20037;-71
2024/01/02 07:08:54;;;;;;;2.33;1.83;;;;;;;;;;5003742;28;20070;-71
2024/01/02 07:11:20;;;;;;;2.33;2.00;;;;;;;;;;5014452;28;20128;-71
2024/01/02 07:13:46;;;;;;;2.22;1.98;;;;;;;;;;5008773;28;20161;-71
2024/01/02 07:16:12;;;;;;;3.88;2.40;;;;;;;;;;5007497;28;20038;-71
2024/01/02 07:18:38;;;;;;;3.53;2.33;;;;;;;;;;5009177;28;20041;-71
2024/01/02 07:21:04;;;;;;;2.58;2.25;;;;;;;;;;4994574;28;20124;-71
2024/01/02 07:23:30;;;;;;;2.78;2.50;;;;;;;;;;4996581;28;20632;-71
2024/01/02 07:25:56;;;;;;;4.35;2.50;;;;;;;;;;5012699;28;20133;-71
2024/01/02 07:28:22;;;;;;;3.33;2.53;;;;;;;;;;5011674;28;20044;-71
2024/01/02 07:30:50;;;;;;;3.90;2.53;;;;;;;;;;5010081;28;20124;-71
2024/01/02 07:33:16;;;;;;;4.60;3.08;;;;;;;;;;5012826;28;20049;-71
2024/01/02 07:35:42;;;;;;;3.90;3.42;;;;;;;;;;5009652;28;20037;-71
2024/01/02 07:38:08;;;;;;;5.13;3.38;;;;;;;;;;5011778;28;20105;-71
2024/01/02 07:40:34;;;;;;;4.07;3.00;;;;;;;;;;5007020;28;20041;-71
2024/01/02 07:43:00;;;;;;;4.57;3.28;;;;;;;;;;4987302;28;20136;-71
2024/01/02 07:45:27;;;;;;;4.13;2.80;;;;;;;;;;5013780;28;20034;-71
2024/01/02 07:47:54;;;;;;;4.65;3.08;;;;;;;;;;5007672;28;20069;-71
2024/01/02 07:50:20;;;;;;;4.20;2.95;;;;;;;;;;5012721;28;20037;-71
2024/01/02 07:52:47;;;;;;;5.05;3.00;;;;;;;;;;4988506;28;20042;-71
2024/01/02 07:55:13;;;;;;;4.50;2.58;;;;;;;;;;5013381;28;20411;-71
2024/01/02 07:57:39;;;;;;;4.15;2.40;;;;;;;;;;4993896;28;20049;-71
2024/01/02 08:00:05;;;;;;;3.20;2.55;;;;;;;;;;4995609;28;20042;-71
2024/01/02 08:02:31;;;;;;;4.88;2.58;;;;;;;;;;5013606;28;20120;-71
2024/01/02 08:04:57;;;;;;;5.32;2.80;;;;;;;;;;5010135;28;20042;-71
2024/01/02 08:07:23;;;;;;;5.93;2.70;;;;;;;;;;4990619;28;20474;-71
2024/01/02 08:09:49;;;;;;;6.07;2.90;;;;;;;;;;5012706;28;20060;-71
2024/01/02 08:12:15;;;;;;;4.10;2.58;;;;;;;;;;5010226;28;20515;-71
2024/01/02 08:14:41;;;;;;;4.85;2.97;;;;;;;;;;5008306;28;20065;-71
2024/01/02 08:17:09;;;;;;;6.47;2.83;;;;;;;;;;5003156;28;20125;-71
2024/01/02 08:19:35;;;;;;;7.72;3.22;;;;;;;;;;5004720;28;20050;-71
2024/01/02 08:22:02;;;;;;;9.02;3.80;;;;;;;;;;5001601;28;20080;-71
2024/01/02 08:24:28;;;;;;;7.43;3.67;;;;;;;;;;5000479;28;20085;-71
2024/01/02 08:26:54;;;;;;;7.53;3.88;;;;;;;;;;4999622;28;20081;-71
2024/01/02 08:29:21;;;;;;;8.55;4.07;;;;;;;;;;5004377;28;20050;-71
2024/01/02 08:31:47;;;;;;;11.30;4.28;;;;;;;;;;5004100;28;20044;-71
2024/01/02 08:34:13;;;;;;;8.80;4.30;;;;;;;;;;4990617;28;20046;-71
2024/01/02 08:36:39;;;;;;;12.70;4.55;;;;;;;;;;4986344;28;20046;-71
2024/01/02 08:39:05;;;;;;;12.27;4.53;;;;;;;;;;5004403;28;20033;-71
2024/01/02 08:41:31;;;;;;;13.07;4.75;;;;;;;;;;5007985;28;20423;-71
2024/01/02 08:43:57;;;;;;;14.15;5.13;;;;;;;;;;4992615;28;20038;-71
2024/01/02 08:46:23;;;;;;;11.80;4.03;;;;;;;;;;5003605;28;20107;-71
2024/01/02 08:48:49;;;;;;;10.60;4.50;;;;;;;;;;4988368;28;20467;-71
2024/01/02 08:51:15;;;;;;;13.70;4.35;;;;;;;;;;5004365;28;20037;-71
2024/01/02 08:53:41;;;;;;;10.60;3.95;;;;;;;;;;5004739;28;20068;-71
2024/01/02 08:56:09;;;;;;;14.00;4.47;;;;;;;;;;4990257;28;20160;-71
2024/01/02 08:58:35;;;;;;;12.30;4.05;;;;;;;;;;5012448;28;20045;-71
2024/01/02 09:01:01;;;;;;;14.68;3.85;;;;;;;;;;4995038;28;20385;-72
2024/01/02 09:03:30;;;;;;;17.88;4.10;;;;;;;;;;5003611;28;20044;-72
2024/01/02 09:05:56;;;;;;;12.85;4.10;;;;;;;;;;5003279;28;20419;-72
2024/01/02 09:08:22;;;;;;;14.88;3.22;;;;;;;;;;5006619;28;20042;-72
2024/01/02 09:10:48;;;;;;;15.65;3.20;;;;;;;;;;5006739;28;20522;-72
2024/01/02 09:13:14;;;;;;;17.60;3.53;;;;;;;;;;5005021;28;20531;-72
2024/01/02 09:15:40;;;;;;;14.77;2.90;;;;;;;;;;4990437;28;20052;-72
2024/01/02 09:18:06;;;;;;;13.68;3.10;;;;;;;;;;5011159;28;20630;-71
2024/01/02 09:20:34;;;;;;;16.42;3.35;;;;;;;;;;5005330;28;20074;-72
2024/01/02 09:23:00;;;;;;;16.15;2.83;;;;;;;;;;5010384;28;20100;-71
2024/01/02 09:25:26;;;;;;;15.25;2.90;;;;;;;;;;5005535;28;20038;-71
2024/01/02 09:27:55;;;;;;;13.43;2.67;;;;;;;;;;5006434;28;20065;-72
2024/01/02 09:30:23;;;;;;;17.02;3.15;;;;;;;;;;5010519;28;20069;-73
2024/01/02 09:32:49;;;;;;;18.33;3.00;;;;;;;;;;4989481;28;20050;-72
2024/01/02 09:35:16;;;;;;;17.52;2.92;;;;;;;;;;5003391;28;20194;-72
2024/01/02 09:37:42;;;;;;;12.32;2.35;;;;;;;;;;5005214;28;20065;-72
2024/01/02 09:40:14;;;;;;;17.27;2.78;;;;;;;;;;5000877;28;20492;-72
2024/01/02 09:42:52;;;;;;;12.30;2.58;;;;;;;;;;5006837;28;20520;-72
2024/01/02 09:45:39;;;;;;;19.33;2.80;;;;;;;;;;5007173;28;20480;-72
2024/01/02 09:48:10;;;;;;;18.15;3.33;;;;;;;;;;5004362;28;20045;-72
2024/01/02 09:50:48;;;;;;;19.73;3.40;;;;;;;;;;5005355;28;20070;-72
2024/01/02 09:53:31;;;;;;;23.27;3.65;;;;;;;;;;5008452;28;20121;-72
2024/01/02 09:56:03;;;;;;;17.38;2.85;;;;;;;;;;5008755;28;20038;-72
2024/01/02 09:58:35;;;;;;;21.88;3.10;;;;;;;;;;5007631;28;20066;-72
2024/01/02 10:01:17;;;;;;;16.27;2.60;;;;;;;;;;4999975;28;20044;-72
2024/01/02 10:04:01;;;;;;;20.85;2.60;;;;;;;;;;5005909;28;20085;-72
2024/01/02 10:06:51;;;;;;;21.30;3.00;;;;;;;;;;5002215;28;20037;-72
2024/01/02 10:09:44;;;;;;;23.75;3.03;;;;;;;;;;5010784;28;20065;-72
2024/01/02 10:12:22;;;;;;;17.95;2.92;;;;;;;;;;5009505;28;20068;-72
2024/01/02 10:15:00;;;;;;;16.80;3.28;;;;;;;;;;4999747;28;20129;-72
2024/01/02 10:17:45;;;;;;;20.17;3.13;;;;;;;;;;5000822;28;20042;-72
2024/01/02 10:20:22;;;;;;;18.35;2.78;;;;;;;;;;5008925;28;20038;-72
2024/01/02 10:23:03;;;;;;;16.13;3.03;;;;;;;;;;5005509;28;20042;-72
2024/01/02 10:25:29;;;;;;;;;;;;;;;;;;5007932;28;20113;-72
2024/01/02 10:27:58;;;;;;;19.15;3.67;;;;;;;;;;5011929;28;19956;-72
2024/01/02 10:30:27;;;;;;;20.35;3.00;;;;;;;;;;5011831;28;20569;-72
2024/01/02 10:32:54;;;;;;;19.15;2.90;;;;;;;;;;5006024;28;20100;-72
2024/01/02 10:35:32;;;;;;;13.07;2.75;;;;;;;;;;5009020;28;20088;-72
2024/01/02 10:38:08;;;;;;;22.30;3.58;;;;;;;;;;5005675;28;20369;-72
2024/01/02 10:40:36;;;;;;;17.80;3.40;;;;;;;;;;5007274;28;20503;-72
2024/01/02 10:43:07;;;;;;;21.13;3.33;;;;;;;;;;5005454;28;20404;-72
2024/01/02 10:45:40;;;;;;;21.48;3.17;;;;;;;;;;5010011;28;20464;-72
2024/01/02 10:48:08;;;;;;;16.33;3.53;;;;;;;;;;5007192;28;20038;-72
2024/01/02 10:50:43;;;;;;;22.65;3.63;;;;;;;;;;5001230;28;20516;-72
2024/01/02 10:53:11;;;;;;;16.85;3.67;;;;;;;;;;5006960;28;20044;-72
2024/01/02 10:55:44;;;;;;;25.13;4.00;;;;;;;;;;5006485;28;20053;-71
2024/01/02 10:58:15;;;;;;;26.02;3.70;;;;;;;;;;5008620;28;20051;-71
2024/01/02 11:00:59;;;;;;;17.20;4.03;;;;;;;;;;5010031;28;20625;-72
2024/01/02 11:03:28;;;;;;;19.85;3.50;;;;;;;;;;5009698;28;20038;-72
2024/01/02 11:05:54;;;;;;;26.83;4.07;;;;;;;;;;5011291;28;20444;-72
2024/01/02 11:08:32;;;;;;;25.02;4.32;;;;;;;;;;5013808;28;20050;-72
2024/01/02 11:10:59;;;;;;;23.25;4.70;;;;;;;;;;5011605;28;20054;-72
2024/01/02 11:13:29;;;;;;;22.80;4.05;;;;;;;;;;4992074;28;20484;-72
2024/01/02 11:16:05;;;;;;;24.88;4.95;;;;;;;;;;5008869;28;20042;-72
2024/01/02 11:18:33;;;;;;;19.65;4.30;;;;;;;;;;4995615;28;20057;-72
2024/01/02 11:20:59;;;;;;;23.20;4.20;;;;;;;;;;5010081;28;20129;-72
2024/01/02 11:23:27;;;;;;;29.27;5.32;;;;;;;;;;5005932;28;20112;-72
2024/01/02 11:26:04;;;;;;;29.10;4.85;;;;;;;;;;5008061;28;20077;-72
2024/01/02 11:28:30;;;;;;;22.48;4.30;;;;;;;;;;5010535;28;20103;-71
2024/01/02 11:30:57;;;;;;;31.40;4.82;;;;;;;;;;5006753;28;20050;-72
2024/01/02 11:33:38;;;;;;;22.17;4.32;;;;;;;;;;5000639;28;20038;-71
2024/01/02 11:36:04;;;;;;;24.00;4.72;;;;;;;;;;5012644;28;20442;-71
2024/01/02 11:38:37;;;;;;;24.73;4.57;;;;;;;;;;5006901;28;20050;-71
2024/01/02 11:41:28;;;;;;;21.60;4.65;;;;;;;;;;5055268;23;20061;-70
2024/01/02 11:43:57;;;;;;;30.63;4.90;;;;;;;;;;5028817;28;20076;-71
2024/01/02 11:46:26;;;;;;;19.38;4.80;;;;;;;;;;5028927;28;20029;-73
2024/01/02 11:48:59;;;;;;;23.98;5.22;;;;;;;;;;5014906;28;20056;-74
2024/01/02 11:51:29;;;;;;;29.10;5.75;;;;;;;;;;5016266;28;20125;-73
2024/01/02 11:54:01;;;;;;;33.70;5.65;;;;;;;;;;5013566;28;20125;-73
2024/01/02 11:56:31;;;;;;;24.10;5.20;;;;;;;;;;4995530;28;20398;-73
2024/01/02 11:59:08;;;;;;;23.98;5.78;;;;;;;;;;5016733;28;20037;-73
2024/01/02 12:01:45;;;;;;;25.50;5.50;;;;;;;;;;5018614;28;20065;-73
2024/01/02 12:04:20;;;;;;;28.58;5.88;;;;;;;;;;5009484;28;20085;-73
2024/01/02 12:06:49;;;;;;;23.65;5.45;;;;;;;;;;5012447;28;20048;-73
2024/01/02 12:09:17;;;;;;;33.30;5.97;;;;;;;;;;5015674;28;20037;-73
2024/01/02 12:11:55;;;;;;;26.65;5.93;;;;;;;;;;4995121;28;20129;-73
2024/01/02 12:14:35;;;;;;;33.22;5.40;;;;;;;;;;5014583;28;20050;-73
2024/01/02 12:17:05;;;;;;;35.75;6.13;;;;;;;;;;5017630;28;20076;-73
2024/01/02 12:19:32;;;;;;;24.35;5.50;;;;;;;;;;5013770;28;20038;-73
2024/01/02 12:21:58;;;;;;;31.63;6.30;;;;;;;;;;5013609;28;20152;-73
2024/01/02 12:24:26;;;;;;;33.60;6.45;;;;;;;;;;4996768;28;20499;-73
2024/01/02 12:26:52;;;;;;;35.60;6.18;;;;;;;;;;5015615;28;20042;-74
2024/01/02 12:29:28;;;;;;;33.90;6.15;;;;;;;;;;5013745;28;20491;-74
2024/01/02 12:31:57;;;;;;;30.30;5.72;;;;;;;;;;5018151;28;20083;-73
2024/01/02 12:34:31;;;;;;;36.90;6.53;;;;;;;;;;5012241;28;20042;-73
2024/01/02 12:37:00;;;;;;;29.60;6.15;;;;;;;;;;5015007;28;20510;-73
2024/01/02 12:39:30;;;;;;;24.27;5.78;;;;;;;;;;5013697;28;20562;-73
2024/01/02 12:41:57;;;;;;;29.77;6.25;;;;;;;;;;5016541;28;20082;-73
2024/01/02 12:44:27;;;;;;;32.20;5.93;;;;;;;;;;5010024;28;20037;-74
2024/01/02 12:46:58;;;;;;;31.75;5.53;;;;;;;;;;5017126;28;20050;-74
2024/01/02 12:49:28;;;;;;;33.10;6.80;;;;;;;;;;5015246;28;20487;-74
2024/01/02 12:52:04;;;;;;;28.80;5.43;;;;;;;;;;5015182;28;20046;-73
2024/01/02 12:54:30;;;;;;;29.38;5.35;;;;;;;;;;5014094;28;20057;-74
2024/01/02 12:57:01;;;;;;;29.83;6.03;;;;;;;;;;5012523;28;20507;-74
2024/01/02 12:59:28;;;;;;;28.00;5.78;;;;;;;;;;5002730;28;20387;-74
2024/01/02 13:01:54;;;;;;;29.02;5.25;;;;;;;;;;5016631;28;20049;-74
2024/01/02 13:04:20;;;;;;;25.40;5.32;;;;;;;;;;5015622;28;20048;-74
2024/01/02 13:06:46;;;;;;;31.58;6.07;;;;;;;;;;5013677;28;20408;-74
2024/01/02 13:09:15;;;;;;;27.20;6.18;;;;;;;;;;5017360;28;20500;-74
2024/01/02 13:11:41;;;;;;;33.53;6.45;;;;;;;;;;5013542;28;20049;-74
2024/01/02 13:14:08;;;;;;;31.17;5.93;;;;;;;;;;5016924;28;20546;-74
2024/01/02 13:16:35;;;;;;;28.30;6.28;;;;;;;;;;4995425;28;20509;-73
2024/01/02 13:19:02;;;;;;;31.88;6.53;;;;;;;;;;5015107;28;20049;-73
2024/01/02 13:21:28;;;;;;;27.85;7.15;;;;;;;;;;5015223;28;20037;-73
2024/01/02 13:23:57;;;;;;;32.22;7.32;;;;;;;;;;5016151;28;20039;-73
2024/01/02 13:26:24;;;;;;;35.53;6.93;;;;;;;;;;5009548;28;20057;-73
2024/01/02 13:28:50;;;;;;;36.15;7.03;;;;;;;;;;5013478;28;20049;-73
2024/01/02 13:31:33;;;;;;;31.00;7.22;;;;;;;;;;5014408;28;20499;-73
2024/01/02 13:34:00;;;;;;;27.35;8.25;;;;;;;;;;5016056;28;20048;-73
2024/01/02 13:40:43;;;;;;;31.98;9.20;;;11.20;99.90;;;;;;5121239;27;20327;-72
2024/01/02 13:43:13;;;;;;;32.65;9.93;;;10.80;99.90;;;;;;5105149;28;20032;-71
2024/01/02 13:45:40;;;;;;;36.83;10.18;;;10.80;99.90;;;;;;5104353;28;20040;-70
2024/01/02 13:48:15;;;;;;;30.33;10.90;;;10.80;99.90;;;;;;5106690;28;20089;-71
2024/01/02 13:50:43;;;;;;;32.40;10.57;;;10.70;99.90;;;;;;5102140;28;20043;-70
2024/01/02 13:53:09;;;;;;;30.00;10.60;;;10.70;99.90;;;;;;5101225;28;20039;-74
2024/01/02 13:55:37;;;;;;;30.70;10.40;;;10.80;99.90;;;;;;5099994;28;20041;-69
2024/01/02 13:58:09;;;;;;;36.92;10.27;;;10.70;99.90;;;;;;5085913;28;20035;-71
2024/01/02 14:00:38;;;;;;;29.15;9.38;;;10.70;99.90;;;;;;5101195;28;20036;-70
2024/01/02 14:03:06;;;;;;;30.00;9.00;;;10.70;99.90;;;;;;5101219;28;20036;-71
2024/01/02 14:05:32;;;;;;;23.05;7.85;;;10.70;99.90;;;;;;5101640;28;20071;-71
2024/01/02 14:07:58;;;;;;;17.27;6.55;;;10.70;99.90;;;;;;5108216;28;20042;-71
2024/01/02 14:10:38;;;;;;;14.02;6.22;;;10.70;99.90;;;;;;5104325;28;20043;-72
2024/01/02 14:13:26;;;;;;;14.93;5.85;;;10.70;99.90;;;;;;5101943;28;20040;-72
2024/01/02 14:15:56;;;;;;;13.75;5.95;;;10.70;99.90;;;;;;5102005;28;20047;-72
2024/01/02 14:18:24;;;;;;;9.98;5.65;;;10.70;99.90;;;;;;5106807;28;20036;-72
2024/01/02 14:21:11;;;;;;;10.23;5.28;;;10.70;99.90;;;;;;5103440;28;20037;-72
2024/01/02 14:23:39;;;;;;;9.20;5.55;;;10.80;99.90;;;;;;5105194;28;20478;-73
2024/01/02 14:26:05;;;;;;;10.07;5.53;;;10.70;99.90;;;;;;5104811;28;20094;-72
2024/01/02 14:28:42;;;;;;;11.48;5.30;;;10.80;99.90;;;;;;5100419;28;20639;-72
2024/01/02 14:31:46;;;;;;;7.05;5.03;;;10.70;99.90;;;;;;5100498;28;20036;-72
2024/01/02 14:34:23;;;;;;;9.40;5.30;;;10.80;99.90;;;;;;5096314;28;20040;-71